Axel, Colorado
Current Conditions -  °F | °C
As of 9:53 AM on Saturday 20 Dec 2014 (Local Time) from KEEO Reporting Station
Light Snow Light Snow  
Wind Chill: -3°   Ceiling: 4100
Heat Index: -3°   Visibility: 8mi
Dew Point: -7°   Wind: 0mph
Humidity: 78%   Direction: NA
Pressure: 30.14"   Gusts: NA
Location:  40.0347°N, 107.628°W
Report Text: KEEO 201653Z AUTO 00000KT 8SM -SN OVC041 M03/M07 A3014 RMK AO2 SNB42 SLP245 P0000 T10331067
Loading
Personal Weather Stations






























Interactive Weather Map New forecast layout! Learn more

10-Day Weather Forecast

Advertisements
Track Severe Weather on mobile